Time;durP1;ratioP1;P1;durP2;ratioP2;P2;SDS_P1;SDS_P2;PMS_P1;PMS_P2;Temp;Humidity;BMP_temperature;BMP_pressure;BME280_temperature;BME280_humidity;BME280_pressure;Samples;Min_cycle;Max_cycle;Signal;HPM_P1;HPM_P2
2022/08/23 00:00:08;;;;;;;5.63;2.50;;;;;;;;;;5066876;28;20218;-76
2022/08/23 00:02:41;;;;;;;3.55;2.20;;;;;;;;;;5073577;28;20186;-77
2022/08/23 00:05:12;;;;;;;4.00;2.47;;;;;;;;;;5073798;28;20194;-76
2022/08/23 00:07:42;;;;;;;3.80;2.42;;;;;;;;;;5073772;28;20202;-76
2022/08/23 00:10:13;;;;;;;5.57;2.80;;;;;;;;;;5073480;28;20622;-76
2022/08/23 00:12:42;;;;;;;3.33;2.22;;;;;;;;;;5055375;28;20207;-76
2022/08/23 00:15:13;;;;;;;4.20;2.63;;;;;;;;;;5056641;28;20207;-77
2022/08/23 00:17:42;;;;;;;5.85;2.60;;;;;;;;;;5053968;28;20229;-76
2022/08/23 00:20:13;;;;;;;3.38;2.50;;;;;;;;;;5053151;28;20230;-77
2022/08/23 00:22:42;;;;;;;3.90;2.40;;;;;;;;;;5053211;28;20188;-76
2022/08/23 00:25:11;;;;;;;5.13;2.45;;;;;;;;;;5069249;28;20217;-76
2022/08/23 00:27:40;;;;;;;3.92;2.38;;;;;;;;;;5072957;28;20217;-76
2022/08/23 00:30:11;;;;;;;4.75;2.20;;;;;;;;;;5072475;28;20230;-76
2022/08/23 00:32:40;;;;;;;3.47;2.40;;;;;;;;;;5091265;28;20638;-76
2022/08/23 00:35:09;;;;;;;3.95;2.35;;;;;;;;;;5075386;28;20647;-76
2022/08/23 00:37:39;;;;;;;3.65;2.50;;;;;;;;;;5056424;28;20210;-77
2022/08/23 00:40:10;;;;;;;4.05;2.25;;;;;;;;;;5066822;28;20736;-76
2022/08/23 00:48:16;;;;;;;3.33;2.33;;;;;;;;;;5057364;28;20203;-76
2022/08/23 00:50:47;;;;;;;4.93;2.45;;;;;;;;;;5057493;28;20211;-76
2022/08/23 00:53:20;;;;;;;3.88;2.20;;;;;;;;;;5057607;28;20183;-75
2022/08/23 00:55:50;;;;;;;5.65;2.50;;;;;;;;;;5057132;28;20195;-78
2022/08/23 00:58:20;;;;;;;5.95;2.65;;;;;;;;;;5056862;28;20195;-76
2022/08/23 01:00:49;;;;;;;5.88;2.20;;;;;;;;;;5056930;28;20222;-77
2022/08/23 01:03:19;;;;;;;2.78;2.40;;;;;;;;;;5082992;28;20209;-76
2022/08/23 01:05:51;;;;;;;2.75;2.50;;;;;;;;;;5073402;28;20255;-77
2022/08/23 01:08:22;;;;;;;3.70;2.67;;;;;;;;;;5076691;28;20570;-76
2022/08/23 01:10:55;;;;;;;4.40;2.33;;;;;;;;;;5072099;28;20195;-77
2022/08/23 01:13:26;;;;;;;3.65;2.47;;;;;;;;;;5091944;28;20202;-76
2022/08/23 01:15:56;;;;;;;3.30;2.35;;;;;;;;;;5056591;28;20215;-77
2022/08/23 01:18:28;;;;;;;6.30;2.40;;;;;;;;;;5057997;28;20188;-77
2022/08/23 01:20:58;;;;;;;4.65;2.53;;;;;;;;;;5089093;28;20221;-75
2022/08/23 01:23:35;;;;;;;5.03;2.30;;;;;;;;;;5094439;28;20186;-76
2022/08/23 01:26:04;;;;;;;5.20;2.60;;;;;;;;;;5071127;28;20601;-76
2022/08/23 01:28:32;;;;;;;2.45;2.25;;;;;;;;;;5076373;28;20571;-76
2022/08/23 01:31:01;;;;;;;6.57;2.40;;;;;;;;;;5075371;28;20644;-76
2022/08/23 01:33:33;;;;;;;3.58;2.35;;;;;;;;;;5056637;28;20268;-76
2022/08/23 01:36:03;;;;;;;4.10;2.42;;;;;;;;;;5082653;28;20217;-77
2022/08/23 01:38:38;;;;;;;4.68;2.58;;;;;;;;;;5074016;28;20676;-77
2022/08/23 01:41:07;;;;;;;4.93;2.65;;;;;;;;;;5071904;28;20225;-77
2022/08/23 01:43:35;;;;;;;4.80;2.60;;;;;;;;;;5068798;28;20237;-77
2022/08/23 01:46:09;;;;;;;5.03;2.55;;;;;;;;;;5076087;28;20209;-77
2022/08/23 01:48:37;;;;;;;3.60;2.40;;;;;;;;;;5067075;28;20233;-77
2022/08/23 01:51:06;;;;;;;4.30;2.38;;;;;;;;;;5070936;28;20206;-76
2022/08/23 01:53:35;;;;;;;4.20;2.45;;;;;;;;;;5068355;28;20231;-77
2022/08/23 01:56:05;;;;;;;4.57;2.45;;;;;;;;;;5056122;28;20207;-76
2022/08/23 01:58:33;;;;;;;5.90;2.45;;;;;;;;;;5068232;28;20260;-76
2022/08/23 02:01:03;;;;;;;3.50;2.42;;;;;;;;;;5068823;28;20621;-76
2022/08/23 02:03:32;;;;;;;6.40;2.40;;;;;;;;;;5056035;28;20249;-76
2022/08/23 02:06:00;;;;;;;4.15;2.50;;;;;;;;;;5070055;28;20644;-76
2022/08/23 02:11:17;;;;;;;2.85;2.40;;;;;;;;;;5061524;28;20219;-76
2022/08/23 02:13:46;;;;;;;4.38;2.45;;;;;;;;;;5074151;28;20541;-75
2022/08/23 02:16:21;;;;;;;4.68;2.50;;;;;;;;;;5095673;28;20620;-76
2022/08/23 02:18:50;;;;;;;4.80;2.40;;;;;;;;;;5096083;28;20229;-76
2022/08/23 02:21:18;;;;;;;4.70;2.47;;;;;;;;;;5095097;28;20685;-76
2022/08/23 02:23:47;;;;;;;3.50;2.30;;;;;;;;;;5096274;28;20205;-76
2022/08/23 02:26:17;;;;;;;4.70;2.80;;;;;;;;;;5095569;28;20206;-76
2022/08/23 02:28:46;;;;;;;4.15;2.50;;;;;;;;;;5071334;28;20226;-76
2022/08/23 02:31:14;;;;;;;3.55;2.58;;;;;;;;;;5077684;28;20217;-76
2022/08/23 02:33:44;;;;;;;3.75;2.40;;;;;;;;;;5096175;28;20629;-77
2022/08/23 02:36:30;;;;;;;3.58;2.55;;;;;;;;;;5074846;28;20214;-76
2022/08/23 02:38:59;;;;;;;3.80;2.25;;;;;;;;;;5055239;28;20635;-76
2022/08/23 02:41:30;;;;;;;2.83;2.38;;;;;;;;;;5055556;28;20642;-77
2022/08/23 02:43:59;;;;;;;3.05;2.33;;;;;;;;;;5060936;28;20198;-77
2022/08/23 02:46:27;;;;;;;4.13;2.50;;;;;;;;;;5074867;28;20241;-77
2022/08/23 02:48:56;;;;;;;3.70;2.28;;;;;;;;;;5074888;28;20262;-77
2022/08/23 02:51:25;;;;;;;4.93;2.53;;;;;;;;;;5066481;28;20206;-76
2022/08/23 02:53:53;;;;;;;5.07;2.53;;;;;;;;;;5057970;28;20238;-77
2022/08/23 02:56:22;;;;;;;3.70;2.50;;;;;;;;;;5075492;28;20221;-76
2022/08/23 02:58:52;;;;;;;4.00;2.47;;;;;;;;;;5073082;28;20219;-75
2022/08/23 03:01:24;;;;;;;6.15;2.65;;;;;;;;;;5064286;28;20219;-76
2022/08/23 03:03:53;;;;;;;4.18;2.40;;;;;;;;;;5064300;28;20286;-76
2022/08/23 03:06:21;;;;;;;5.25;2.83;;;;;;;;;;5060514;28;20285;-76
2022/08/23 03:08:52;;;;;;;4.15;2.45;;;;;;;;;;5072085;28;20230;-76
2022/08/23 03:11:21;;;;;;;3.95;2.60;;;;;;;;;;5059726;28;20226;-76
2022/08/23 03:13:50;;;;;;;4.10;2.33;;;;;;;;;;5070139;28;20206;-76
2022/08/23 03:16:20;;;;;;;5.35;2.38;;;;;;;;;;5074054;28;20230;-76
2022/08/23 03:18:49;;;;;;;3.50;2.17;;;;;;;;;;5074131;28;20258;-76
2022/08/23 03:21:18;;;;;;;6.05;2.50;;;;;;;;;;5061960;28;20314;-76
2022/08/23 03:23:47;;;;;;;5.75;2.60;;;;;;;;;;5057774;28;20648;-76
2022/08/23 03:26:16;;;;;;;4.57;2.50;;;;;;;;;;5059024;28;20290;-77
2022/08/23 03:28:45;;;;;;;4.75;2.60;;;;;;;;;;5054035;28;20252;-76
2022/08/23 03:31:14;;;;;;;5.32;2.70;;;;;;;;;;5053573;28;20282;-77
2022/08/23 03:33:44;;;;;;;5.20;2.63;;;;;;;;;;5054039;28;20207;-77
2022/08/23 03:36:13;;;;;;;4.40;2.45;;;;;;;;;;5092070;28;20247;-76
2022/08/23 03:38:42;;;;;;;2.90;2.47;;;;;;;;;;5090854;28;20199;-76
2022/08/23 03:41:10;;;;;;;3.95;2.47;;;;;;;;;;5060039;28;20329;-77
2022/08/23 03:43:39;;;;;;;4.65;2.42;;;;;;;;;;5066439;28;20553;-76
2022/08/23 03:46:08;;;;;;;4.45;2.53;;;;;;;;;;5074122;28;20655;-76
2022/08/23 03:48:37;;;;;;;5.38;2.85;;;;;;;;;;5073955;28;20298;-76
2022/08/23 03:51:07;;;;;;;5.20;2.45;;;;;;;;;;5063661;28;20207;-76
2022/08/23 03:53:36;;;;;;;7.25;2.55;;;;;;;;;;5056752;28;20202;-76
2022/08/23 03:56:04;;;;;;;5.18;2.35;;;;;;;;;;5082817;28;20210;-76
2022/08/23 03:58:33;;;;;;;5.68;2.78;;;;;;;;;;5090203;28;20217;-77
2022/08/23 04:01:01;;;;;;;3.97;2.45;;;;;;;;;;5073657;28;20263;-76
2022/08/23 04:03:30;;;;;;;5.93;2.70;;;;;;;;;;5073640;28;20221;-76
2022/08/23 04:05:58;;;;;;;4.15;2.60;;;;;;;;;;5073442;28;20252;-76
2022/08/23 04:08:28;;;;;;;4.78;2.60;;;;;;;;;;5074001;28;20255;-76
2022/08/23 04:11:01;;;;;;;2.95;2.55;;;;;;;;;;5064239;28;20716;-77
2022/08/23 04:13:29;;;;;;;4.93;2.92;;;;;;;;;;5055408;28;20214;-76
2022/08/23 04:16:01;;;;;;;4.25;2.70;;;;;;;;;;5069178;28;20602;-76
2022/08/23 04:18:30;;;;;;;3.92;2.65;;;;;;;;;;5093695;28;20197;-76
2022/08/23 04:20:59;;;;;;;4.20;2.70;;;;;;;;;;5066678;28;20203;-77
2022/08/23 04:23:30;;;;;;;5.90;2.72;;;;;;;;;;5059393;28;20245;-77
2022/08/23 04:25:58;;;;;;;3.55;2.63;;;;;;;;;;5081929;28;20258;-77
2022/08/23 04:28:29;;;;;;;6.65;2.58;;;;;;;;;;5088610;28;20612;-76
2022/08/23 04:30:59;;;;;;;3.35;2.42;;;;;;;;;;5052879;28;20280;-77
2022/08/23 04:33:30;;;;;;;4.10;2.70;;;;;;;;;;5072672;28;20198;-77
2022/08/23 04:35:59;;;;;;;3.38;2.65;;;;;;;;;;5052910;28;20207;-76
2022/08/23 04:38:28;;;;;;;5.95;2.83;;;;;;;;;;5063436;28;20216;-76
2022/08/23 04:43:44;;;;;;;6.18;2.90;;;;;;;;;;5055836;28;20218;-76
2022/08/23 04:46:14;;;;;;;4.28;2.80;;;;;;;;;;5074012;28;20233;-76
2022/08/23 04:48:43;;;;;;;4.00;2.63;;;;;;;;;;5053219;28;20204;-76
2022/08/23 04:51:12;;;;;;;3.08;2.55;;;;;;;;;;5072262;28;20248;-76
2022/08/23 04:53:41;;;;;;;4.63;2.60;;;;;;;;;;5090292;28;20601;-76
2022/08/23 04:56:11;;;;;;;6.05;2.90;;;;;;;;;;5073537;28;20210;-76
2022/08/23 04:58:40;;;;;;;3.33;2.80;;;;;;;;;;5069121;28;22038;-76
2022/08/23 05:01:09;;;;;;;6.70;3.10;;;;;;;;;;5087545;28;20214;-76
2022/08/23 05:03:41;;;;;;;4.28;2.75;;;;;;;;;;5068161;28;20260;-76
2022/08/23 05:06:10;;;;;;;4.20;2.75;;;;;;;;;;5073227;28;20640;-76
2022/08/23 05:08:39;;;;;;;4.43;2.95;;;;;;;;;;5072333;28;20202;-76
2022/08/23 05:11:08;;;;;;;5.38;2.78;;;;;;;;;;5072622;28;20207;-76
2022/08/23 05:13:39;;;;;;;5.88;2.70;;;;;;;;;;5071898;28;20607;-77
2022/08/23 05:16:07;;;;;;;4.50;2.63;;;;;;;;;;5072729;28;20252;-76
2022/08/23 05:18:36;;;;;;;7.80;2.80;;;;;;;;;;5055258;28;20211;-76
2022/08/23 05:21:04;;;;;;;4.47;2.75;;;;;;;;;;5054325;28;20206;-76
2022/08/23 05:23:33;;;;;;;7.40;2.95;;;;;;;;;;5072254;28;20284;-76
2022/08/23 05:26:01;;;;;;;5.15;2.88;;;;;;;;;;5067384;28;20219;-76
2022/08/23 05:28:31;;;;;;;4.85;2.80;;;;;;;;;;5069938;28;20205;-76
2022/08/23 05:31:02;;;;;;;4.63;2.58;;;;;;;;;;5064426;28;20219;-76
2022/08/23 05:33:31;;;;;;;3.15;2.60;;;;;;;;;;5063719;28;20210;-76
2022/08/23 05:36:00;;;;;;;5.80;2.63;;;;;;;;;;5075643;28;20214;-76
2022/08/23 05:38:29;;;;;;;2.95;2.65;;;;;;;;;;5083749;28;20233;-77
2022/08/23 05:41:00;;;;;;;4.72;2.78;;;;;;;;;;5089614;28;20191;-76
2022/08/23 05:43:32;;;;;;;3.85;2.67;;;;;;;;;;5074416;28;20214;-76
2022/08/23 05:46:03;;;;;;;4.10;2.90;;;;;;;;;;5075802;28;20202;-76
2022/08/23 05:48:33;;;;;;;5.53;2.80;;;;;;;;;;5075630;28;20190;-76
2022/08/23 05:51:09;;;;;;;5.20;2.70;;;;;;;;;;5074122;28;20210;-76
2022/08/23 05:53:37;;;;;;;3.47;2.67;;;;;;;;;;5070337;28;20191;-76
2022/08/23 05:56:11;;;;;;;3.40;2.60;;;;;;;;;;5075659;28;20593;-76
2022/08/23 05:58:39;;;;;;;4.88;2.75;;;;;;;;;;5075995;28;20631;-76
2022/08/23 06:01:10;;;;;;;3.95;2.70;;;;;;;;;;5065795;28;20211;-76
2022/08/23 06:03:38;;;;;;;4.35;2.55;;;;;;;;;;5058531;28;20208;-76
2022/08/23 06:06:07;;;;;;;4.60;2.67;;;;;;;;;;5092484;28;20643;-76
2022/08/23 06:08:37;;;;;;;3.05;2.45;;;;;;;;;;5075807;28;20206;-76
2022/08/23 06:11:07;;;;;;;3.33;2.50;;;;;;;;;;5055653;28;20207;-76
2022/08/23 06:13:36;;;;;;;5.55;2.75;;;;;;;;;;5057794;28;20195;-76
2022/08/23 06:16:06;;;;;;;4.50;2.70;;;;;;;;;;5075839;28;20611;-76
2022/08/23 06:18:44;;;;;;;3.42;2.35;;;;;;;;;;5075672;28;20286;-77
2022/08/23 06:21:13;;;;;;;4.22;2.63;;;;;;;;;;5055021;28;20187;-76
2022/08/23 06:23:42;;;;;;;5.00;2.80;;;;;;;;;;5055299;28;20235;-76
2022/08/23 06:26:11;;;;;;;5.43;2.47;;;;;;;;;;5067636;28;20209;-76
2022/08/23 06:28:39;;;;;;;3.97;2.60;;;;;;;;;;5095159;28;20267;-76
2022/08/23 06:31:44;;;;;;;3.17;2.55;;;;;;;;;;5089045;28;20193;-76
2022/08/23 06:34:09;;;;;;;4.53;2.97;;;;;;;;;;5075151;28;20663;-76
2022/08/23 06:36:38;;;;;;;6.07;3.38;;;;;;;;;;5074150;28;20553;-76
2022/08/23 06:39:08;;;;;;;6.40;2.75;;;;;;;;;;5074991;28;20292;-76
2022/08/23 06:41:37;;;;;;;8.27;2.72;;;;;;;;;;5082432;28;20251;-76
2022/08/23 06:44:06;;;;;;;7.50;2.45;;;;;;;;;;5087410;28;20667;-76
2022/08/23 06:46:35;;;;;;;4.28;2.40;;;;;;;;;;5075209;28;20682;-76
2022/08/23 06:49:04;;;;;;;4.35;2.70;;;;;;;;;;5074735;28;20279;-76
2022/08/23 06:51:35;;;;;;;4.63;2.53;;;;;;;;;;5062416;28;20645;-76
2022/08/23 06:54:06;;;;;;;4.18;2.40;;;;;;;;;;5054962;28;20226;-76
2022/08/23 06:56:36;;;;;;;7.18;2.70;;;;;;;;;;5062394;28;20205;-76
2022/08/23 06:59:06;;;;;;;6.15;2.80;;;;;;;;;;5081511;28;20566;-77
2022/08/23 07:01:35;;;;;;;7.10;2.70;;;;;;;;;;5077448;28;20209;-76
2022/08/23 07:04:14;;;;;;;3.45;2.53;;;;;;;;;;5095088;28;20258;-76
2022/08/23 07:06:44;;;;;;;5.68;2.80;;;;;;;;;;5076513;28;20252;-76
2022/08/23 07:09:13;;;;;;;3.13;2.40;;;;;;;;;;5058620;28;20226;-76
2022/08/23 07:11:41;;;;;;;4.22;2.67;;;;;;;;;;5082657;28;20207;-76
2022/08/23 07:14:11;;;;;;;7.25;2.80;;;;;;;;;;5073993;28;20648;-77
2022/08/23 07:16:42;;;;;;;4.68;2.58;;;;;;;;;;5074524;28;20213;-76
2022/08/23 07:19:11;;;;;;;4.40;2.22;;;;;;;;;;5074663;28;20307;-77
2022/08/23 07:21:39;;;;;;;5.53;2.78;;;;;;;;;;5055194;28;20567;-76
2022/08/23 07:24:09;;;;;;;6.40;2.33;;;;;;;;;;5061994;28;20549;-77
2022/08/23 07:26:38;;;;;;;5.60;2.20;;;;;;;;;;5074595;28;20202;-77
2022/08/23 07:29:07;;;;;;;3.80;2.30;;;;;;;;;;5073988;28;20653;-77
2022/08/23 07:31:38;;;;;;;2.53;2.05;;;;;;;;;;5074780;28;20206;-77
2022/08/23 07:34:07;;;;;;;5.40;2.08;;;;;;;;;;5074537;28;20734;-76
2022/08/23 07:36:36;;;;;;;2.92;2.17;;;;;;;;;;5074809;28;20209;-77
2022/08/23 07:39:05;;;;;;;4.03;1.98;;;;;;;;;;5074704;28;20667;-77
2022/08/23 07:41:34;;;;;;;4.32;2.03;;;;;;;;;;5075277;28;20252;-77
2022/08/23 07:44:04;;;;;;;6.43;2.28;;;;;;;;;;5088026;28;20207;-76
2022/08/23 07:46:33;;;;;;;4.55;2.35;;;;;;;;;;5075766;28;20598;-77
2022/08/23 07:49:02;;;;;;;6.28;2.35;;;;;;;;;;5060165;28;20249;-77
2022/08/23 07:51:32;;;;;;;5.22;2.30;;;;;;;;;;5074743;28;20203;-77
2022/08/23 07:54:01;;;;;;;5.72;1.85;;;;;;;;;;5086676;28;20206;-76
2022/08/23 07:56:30;;;;;;;4.70;2.10;;;;;;;;;;5073942;28;20194;-77
2022/08/23 07:59:00;;;;;;;4.47;2.00;;;;;;;;;;5059946;28;20226;-77
2022/08/23 08:01:29;;;;;;;3.75;2.00;;;;;;;;;;5079956;28;20190;-77
2022/08/23 08:03:58;;;;;;;4.55;2.20;;;;;;;;;;5092753;28;20253;-77
2022/08/23 08:06:28;;;;;;;6.28;2.38;;;;;;;;;;5074252;28;20198;-76
2022/08/23 08:08:57;;;;;;;3.88;2.10;;;;;;;;;;5072733;28;20230;-77
2022/08/23 08:11:28;;;;;;;8.13;2.30;;;;;;;;;;5073959;28;20210;-77
2022/08/23 08:14:06;;;;;;;4.22;2.08;;;;;;;;;;5073792;28;20226;-77
2022/08/23 08:16:35;;;;;;;6.88;2.35;;;;;;;;;;5074026;28;20213;-77
2022/08/23 08:19:06;;;;;;;6.03;2.13;;;;;;;;;;5073716;28;20222;-77
2022/08/23 08:21:35;;;;;;;3.65;2.00;;;;;;;;;;5074079;28;20627;-76
2022/08/23 08:24:11;;;;;;;7.72;2.30;;;;;;;;;;5071179;28;20284;-77
2022/08/23 08:26:40;;;;;;;3.30;2.28;;;;;;;;;;5053786;28;20630;-76
2022/08/23 08:29:11;;;;;;;4.18;2.10;;;;;;;;;;5053405;28;20230;-76
2022/08/23 08:31:39;;;;;;;3.83;2.15;;;;;;;;;;5068433;28;20225;-77
2022/08/23 08:34:08;;;;;;;3.28;2.20;;;;;;;;;;5068234;28;20231;-77
2022/08/23 08:36:37;;;;;;;4.45;2.20;;;;;;;;;;5053564;28;20214;-77
2022/08/23 08:39:07;;;;;;;4.95;2.10;;;;;;;;;;5060347;28;20214;-77
2022/08/23 08:41:48;;;;;;;6.10;2.30;;;;;;;;;;5073943;28;20191;-77
2022/08/23 08:44:36;;;;;;;3.60;2.03;;;;;;;;;;5064326;28;20215;-76
2022/08/23 08:47:08;;;;;;;3.60;2.13;;;;;;;;;;5054027;28;20237;-77
2022/08/23 08:49:39;;;;;;;6.63;2.20;;;;;;;;;;5053686;28;20234;-77
2022/08/23 08:52:12;;;;;;;4.15;2.00;;;;;;;;;;5054038;28;20191;-77
2022/08/23 08:54:41;;;;;;;5.18;1.95;;;;;;;;;;5072472;28;20681;-76
2022/08/23 08:57:16;;;;;;;2.58;2.22;;;;;;;;;;5073169;28;20236;-76
2022/08/23 08:59:59;;;;;;;3.08;2.20;;;;;;;;;;5066078;28;20257;-78
2022/08/23 09:02:29;;;;;;;6.10;2.38;;;;;;;;;;5075512;28;20201;-78
2022/08/23 09:05:01;;;;;;;7.15;2.10;;;;;;;;;;5080346;28;20675;-78
2022/08/23 09:07:37;;;;;;;5.90;2.10;;;;;;;;;;5083927;28;20202;-78
2022/08/23 09:10:10;;;;;;;6.22;2.20;;;;;;;;;;5088260;28;20213;-78
2022/08/23 09:12:44;;;;;;;5.63;2.20;;;;;;;;;;5077408;28;20690;-78
2022/08/23 09:15:21;;;;;;;5.72;2.03;;;;;;;;;;5084531;28;20200;-78
2022/08/23 09:17:51;;;;;;;4.47;1.77;;;;;;;;;;5098696;28;20541;-78
2022/08/23 09:20:21;;;;;;;3.17;1.90;;;;;;;;;;5082127;28;20230;-78
2022/08/23 09:22:52;;;;;;;4.68;2.00;;;;;;;;;;5080477;28;20206;-78
2022/08/23 09:25:21;;;;;;;3.50;2.05;;;;;;;;;;5078544;28;20252;-78
2022/08/23 09:27:49;;;;;;;4.18;2.25;;;;;;;;;;5078309;28;20540;-79
2022/08/23 09:30:20;;;;;;;4.53;1.98;;;;;;;;;;5077625;28;20636;-79
2022/08/23 09:32:50;;;;;;;4.30;1.60;;;;;;;;;;5077716;28;20194;-78
2022/08/23 09:35:20;;;;;;;4.30;2.03;;;;;;;;;;5077816;28;20186;-78
2022/08/23 09:38:03;;;;;;;3.72;1.80;;;;;;;;;;5077474;28;20210;-78
2022/08/23 09:40:35;;;;;;;4.35;1.90;;;;;;;;;;5076475;28;20222;-79
2022/08/23 09:43:12;;;;;;;4.13;2.25;;;;;;;;;;5096761;28;20193;-78
2022/08/23 09:45:44;;;;;;;8.38;2.35;;;;;;;;;;5076344;28;20215;-79
2022/08/23 09:48:14;;;;;;;3.28;1.70;;;;;;;;;;5057998;28;20192;-78
2022/08/23 09:50:46;;;;;;;3.33;1.90;;;;;;;;;;5058385;28;20219;-78
2022/08/23 09:53:16;;;;;;;5.22;1.75;;;;;;;;;;5077606;28;20267;-78
2022/08/23 09:55:49;;;;;;;2.58;1.92;;;;;;;;;;5077212;28;20206;-78
2022/08/23 09:58:20;;;;;;;3.17;1.80;;;;;;;;;;5084902;28;20194;-78
2022/08/23 10:01:02;;;;;;;4.32;2.15;;;;;;;;;;5077720;28;20226;-78
2022/08/23 10:03:31;;;;;;;4.10;1.85;;;;;;;;;;5077362;28;20205;-78
2022/08/23 10:06:00;;;;;;;2.70;1.80;;;;;;;;;;5075827;28;20214;-79
2022/08/23 10:08:32;;;;;;;5.75;2.00;;;;;;;;;;5086054;28;20209;-78
2022/08/23 10:11:03;;;;;;;2.78;1.80;;;;;;;;;;5064218;28;20186;-78
2022/08/23 10:13:32;;;;;;;4.00;1.70;;;;;;;;;;5086998;28;20194;-78
2022/08/23 10:16:08;;;;;;;3.92;1.90;;;;;;;;;;5077056;28;20207;-78
2022/08/23 10:18:44;;;;;;;3.17;2.00;;;;;;;;;;5076780;28;20198;-79
2022/08/23 10:21:18;;;;;;;4.00;1.80;;;;;;;;;;5077675;28;20186;-79
2022/08/23 10:23:55;;;;;;;4.90;2.08;;;;;;;;;;5077078;28;20194;-78
2022/08/23 10:26:27;;;;;;;6.03;2.25;;;;;;;;;;5076920;28;20222;-79
2022/08/23 10:31:50;;;;;;;3.88;1.90;;;;;;;;;;5072513;28;20264;-78
2022/08/23 10:34:28;;;;;;;1.90;1.70;;;;;;;;;;5067769;28;20636;-78
2022/08/23 10:37:04;;;;;;;3.55;1.83;;;;;;;;;;5057393;28;20202;-79
2022/08/23 10:39:33;;;;;;;5.25;1.70;;;;;;;;;;5064763;28;20658;-79
2022/08/23 10:42:04;;;;;;;2.90;2.20;;;;;;;;;;5097158;28;20201;-78
2022/08/23 10:44:35;;;;;;;4.93;1.67;;;;;;;;;;5086049;28;20206;-79
2022/08/23 10:47:11;;;;;;;2.60;1.80;;;;;;;;;;5064395;28;20226;-79
2022/08/23 10:49:41;;;;;;;6.25;2.00;;;;;;;;;;5066234;28;20711;-79
2022/08/23 10:52:13;;;;;;;2.53;1.88;;;;;;;;;;5064521;28;20198;-79
2022/08/23 10:54:47;;;;;;;4.60;1.92;;;;;;;;;;5076667;28;20740;-78
2022/08/23 10:57:19;;;;;;;3.08;1.92;;;;;;;;;;5081632;28;20186;-78
2022/08/23 10:59:47;;;;;;;2.08;1.88;;;;;;;;;;5076722;28;20233;-79
2022/08/23 11:02:22;;;;;;;3.08;1.90;;;;;;;;;;5056649;28;20211;-78
2022/08/23 11:04:53;;;;;;;4.20;1.80;;;;;;;;;;5081210;28;20190;-78
2022/08/23 11:07:26;;;;;;;2.45;1.90;;;;;;;;;;5068575;28;20214;-78
2022/08/23 11:09:57;;;;;;;2.80;1.88;;;;;;;;;;5056143;28;20227;-79
2022/08/23 11:12:32;;;;;;;5.90;1.90;;;;;;;;;;5057365;28;20245;-79
2022/08/23 11:15:11;;;;;;;4.03;1.83;;;;;;;;;;5077412;28;20202;-79
2022/08/23 11:17:54;;;;;;;5.45;1.90;;;;;;;;;;5076818;28;20193;-78
2022/08/23 11:20:41;;;;;;;4.20;1.77;;;;;;;;;;5075012;28;20279;-79
2022/08/23 11:23:14;;;;;;;6.93;2.10;;;;;;;;;;5056667;28;20206;-79
2022/08/23 11:25:44;;;;;;;5.60;2.22;;;;;;;;;;5056154;28;20226;-79
2022/08/23 11:28:37;;;;;;;3.85;1.90;;;;;;;;;;5059168;28;20607;-79
2022/08/23 11:31:20;;;;;;;3.97;1.98;;;;;;;;;;5064961;28;20214;-79
2022/08/23 11:33:52;;;;;;;7.57;2.20;;;;;;;;;;5074137;28;20202;-78
2022/08/23 11:36:22;;;;;;;4.93;1.95;;;;;;;;;;5076104;28;20713;-79
2022/08/23 11:39:05;;;;;;;6.32;2.00;;;;;;;;;;5075697;28;20218;-78
2022/08/23 11:41:35;;;;;;;3.35;1.65;;;;;;;;;;5055744;28;20213;-78
2022/08/23 11:44:18;;;;;;;5.43;1.70;;;;;;;;;;5061906;28;20232;-79
2022/08/23 11:47:00;;;;;;;5.85;1.83;;;;;;;;;;5055767;28;20253;-79
2022/08/23 11:49:38;;;;;;;7.50;1.85;;;;;;;;;;5082434;28;20225;-78
2022/08/23 11:52:12;;;;;;;3.60;1.90;;;;;;;;;;5055876;28;20198;-78
2022/08/23 11:55:00;;;;;;;2.33;1.60;;;;;;;;;;5070404;28;20271;-79
2022/08/23 11:57:34;;;;;;;4.20;1.88;;;;;;;;;;5058808;28;20207;-79
2022/08/23 12:00:10;;;;;;;2.45;1.85;;;;;;;;;;5070351;28;20213;-78
2022/08/23 12:02:48;;;;;;;3.90;1.95;;;;;;;;;;5065647;28;20202;-79
2022/08/23 12:05:31;;;;;;;5.57;1.95;;;;;;;;;;5083152;28;20210;-78
2022/08/23 12:08:19;;;;;;;3.67;1.90;;;;;;;;;;5076046;28;20187;-79
2022/08/23 12:11:07;;;;;;;3.38;1.80;;;;;;;;;;5072100;28;20579;-78
2022/08/23 12:13:46;;;;;;;4.38;1.92;;;;;;;;;;5072825;28;20572;-79
2022/08/23 12:16:28;;;;;;;5.07;2.00;;;;;;;;;;5067683;28;20199;-79
2022/08/23 12:18:59;;;;;;;4.10;1.88;;;;;;;;;;5074672;28;20737;-79
2022/08/23 12:21:32;;;;;;;3.33;1.80;;;;;;;;;;5071273;28;20221;-79
2022/08/23 12:24:02;;;;;;;3.10;1.60;;;;;;;;;;5070056;28;20571;-79
2022/08/23 12:26:34;;;;;;;2.00;1.80;;;;;;;;;;5077345;28;20625;-79
2022/08/23 12:29:06;;;;;;;2.97;1.60;;;;;;;;;;5086407;28;20230;-78
2022/08/23 12:31:39;;;;;;;4.10;1.70;;;;;;;;;;5074032;28;20651;-79
2022/08/23 12:34:12;;;;;;;2.95;1.85;;;;;;;;;;5074728;28;20195;-78
2022/08/23 12:36:46;;;;;;;3.72;1.83;;;;;;;;;;5072727;28;20190;-78
2022/08/23 12:39:23;;;;;;;3.88;1.83;;;;;;;;;;5075329;28;20233;-79
2022/08/23 12:41:55;;;;;;;4.13;1.95;;;;;;;;;;5071959;28;20190;-78
2022/08/23 12:44:25;;;;;;;3.67;1.90;;;;;;;;;;5077175;28;20256;-78
2022/08/23 12:46:53;;;;;;;2.13;1.80;;;;;;;;;;5074059;28;20621;-80
2022/08/23 12:49:27;;;;;;;3.72;2.08;;;;;;;;;;5076902;28;20690;-79
2022/08/23 12:51:59;;;;;;;5.22;1.90;;;;;;;;;;5075169;28;20190;-79
2022/08/23 12:54:36;;;;;;;5.75;1.75;;;;;;;;;;5075484;28;20214;-79
2022/08/23 12:57:10;;;;;;;2.22;1.42;;;;;;;;;;5074677;28;20186;-78
2022/08/23 12:59:43;;;;;;;4.30;1.70;;;;;;;;;;5076139;28;20291;-80
2022/08/23 13:02:13;;;;;;;4.75;1.60;;;;;;;;;;5067997;28;20202;-79
2022/08/23 13:04:43;;;;;;;3.97;1.60;;;;;;;;;;5066575;28;20256;-78
2022/08/23 13:07:15;;;;;;;3.25;1.92;;;;;;;;;;5055735;28;20223;-78
2022/08/23 13:09:44;;;;;;;3.22;1.70;;;;;;;;;;5074188;28;20218;-79
2022/08/23 13:12:23;;;;;;;3.08;1.80;;;;;;;;;;5061716;28;20202;-79
2022/08/23 13:14:52;;;;;;;4.07;2.00;;;;;;;;;;5066915;28;20199;-77
2022/08/23 13:17:23;;;;;;;2.58;1.80;;;;;;;;;;5056748;28;20195;-78
2022/08/23 13:19:52;;;;;;;3.05;1.60;;;;;;;;;;5062508;28;20276;-78
2022/08/23 13:22:24;;;;;;;3.78;1.95;;;;;;;;;;5075919;28;20210;-79
2022/08/23 13:25:01;;;;;;;3.88;1.90;;;;;;;;;;5073715;28;20631;-78
2022/08/23 13:27:53;;;;;;;4.40;2.10;;;;;;;;;;5080273;28;20648;-78
2022/08/23 13:30:23;;;;;;;3.00;2.20;;;;;;;;;;5069919;28;20249;-79
2022/08/23 13:32:53;;;;;;;6.47;2.10;;;;;;;;;;5059258;28;20679;-79
2022/08/23 13:35:42;;;;;;;7.85;2.10;;;;;;;;;;5070365;28;20215;-79
2022/08/23 13:38:16;;;;;;;2.40;1.70;;;;;;;;;;5062431;28;20195;-78
2022/08/23 13:40:53;;;;;;;4.45;1.80;;;;;;;;;;5064397;28;20257;-77
2022/08/23 13:43:23;;;;;;;3.13;2.00;;;;;;;;;;5088118;28;20193;-79
2022/08/23 13:45:53;;;;;;;2.60;2.20;;;;;;;;;;5070244;28;20273;-77
2022/08/23 13:48:23;;;;;;;4.47;1.92;;;;;;;;;;5067915;28;20225;-78
2022/08/23 13:50:52;;;;;;;3.75;2.00;;;;;;;;;;5057432;28;20198;-78
2022/08/23 13:53:22;;;;;;;2.72;2.13;;;;;;;;;;5051852;28;20199;-78
2022/08/23 13:55:52;;;;;;;4.00;1.88;;;;;;;;;;5070451;28;20206;-78
2022/08/23 13:58:26;;;;;;;3.20;2.13;;;;;;;;;;5053465;28;20203;-79
2022/08/23 14:00:54;;;;;;;4.88;2.05;;;;;;;;;;5068809;28;20846;-78
2022/08/23 14:03:26;;;;;;;5.30;2.05;;;;;;;;;;5053812;28;20282;-78
2022/08/23 14:05:55;;;;;;;4.10;2.00;;;;;;;;;;5090956;28;20245;-77
2022/08/23 14:08:25;;;;;;;3.30;2.05;;;;;;;;;;5081244;28;20295;-78
2022/08/23 14:10:53;;;;;;;2.63;2.10;;;;;;;;;;4720392;28;9999749;-78
2022/08/23 14:16:10;;;;;;;4.78;2.10;;;;;;;;;;5071835;28;20210;-77
2022/08/23 14:18:58;;;;;;;4.13;2.05;;;;;;;;;;5070820;28;20277;-78
2022/08/23 14:21:47;;;;;;;5.50;1.88;;;;;;;;;;5062490;28;20934;-79
2022/08/23 14:24:19;;;;;;;2.88;2.00;;;;;;;;;;5073840;28;20193;-77
2022/08/23 14:26:48;;;;;;;2.65;1.80;;;;;;;;;;5093111;28;20288;-78
2022/08/23 14:29:20;;;;;;;3.45;2.00;;;;;;;;;;5071427;28;20230;-78
2022/08/23 14:31:50;;;;;;;1.88;1.75;;;;;;;;;;5085731;28;20204;-79
2022/08/23 14:34:19;;;;;;;1.85;1.75;;;;;;;;;;5068793;28;20213;-78
2022/08/23 14:36:48;;;;;;;3.50;2.15;;;;;;;;;;5068324;28;20213;-77
2022/08/23 14:39:39;;;;;;;1.80;1.70;;;;;;;;;;5066295;28;20582;-79
2022/08/23 14:42:07;;;;;;;2.70;2.00;;;;;;;;;;5081962;28;20214;-79
2022/08/23 14:44:37;;;;;;;4.03;2.20;;;;;;;;;;5078337;28;20237;-78
2022/08/23 14:47:06;;;;;;;4.47;2.20;;;;;;;;;;5090298;28;20202;-77
2022/08/23 14:49:35;;;;;;;2.55;2.17;;;;;;;;;;5077702;28;20227;-78
2022/08/23 14:52:03;;;;;;;2.95;2.10;;;;;;;;;;5064847;28;20211;-76
2022/08/23 14:54:33;;;;;;;3.95;2.10;;;;;;;;;;5074541;28;20202;-80
2022/08/23 14:57:03;;;;;;;16.63;6.20;;;;;;;;;;5097550;28;20205;-81
2022/08/23 14:59:32;;;;;;;5.18;2.10;;;;;;;;;;5077581;28;20245;-80
2022/08/23 15:02:01;;;;;;;3.92;2.10;;;;;;;;;;5076494;28;20286;-80
2022/08/23 15:04:32;;;;;;;5.55;1.95;;;;;;;;;;5078062;28;20201;-82
2022/08/23 15:07:02;;;;;;;4.88;2.08;;;;;;;;;;5090896;28;20669;-80
2022/08/23 15:09:47;;;;;;;3.65;1.88;;;;;;;;;;5098929;28;20233;-82
2022/08/23 15:12:17;;;;;;;3.25;1.60;;;;;;;;;;5101386;28;20206;-81
2022/08/23 15:15:08;;;;;;;4.78;1.98;;;;;;;;;;5065144;28;20199;-81
2022/08/23 15:17:44;;;;;;;3.53;1.83;;;;;;;;;;5077972;28;20201;-80
2022/08/23 15:20:12;;;;;;;6.22;1.70;;;;;;;;;;5080123;28;20228;-81
2022/08/23 15:22:41;;;;;;;4.70;1.92;;;;;;;;;;5061590;28;20217;-81
2022/08/23 15:25:22;;;;;;;3.80;1.77;;;;;;;;;;5076783;28;20225;-81